createdAt,value
2018-02-23T00:00:37.781Z,36.67
2018-02-23T00:03:06.945Z,37.27
2018-02-23T00:05:35.296Z,36.23
2018-02-23T00:08:03.635Z,32.23
2018-02-23T00:10:32.766Z,34.30
2018-02-23T00:13:01.086Z,36.73
2018-02-23T00:15:29.432Z,36.13
2018-02-23T00:17:58.376Z,38.13
2018-02-23T00:20:26.706Z,35.27
2018-02-23T00:22:55.041Z,35.77
2018-02-23T00:25:23.394Z,38.20
2018-02-23T00:27:51.712Z,39.60
2018-02-23T00:30:20.144Z,37.30
2018-02-23T00:32:48.474Z,39.60
2018-02-23T00:35:17.612Z,38.23
2018-02-23T00:37:46.034Z,39.80
2018-02-23T00:40:14.424Z,42.27
2018-02-23T00:42:43.122Z,40.97
2018-02-23T00:45:11.522Z,39.63
2018-02-23T00:47:39.859Z,40.70
2018-02-23T00:50:08.178Z,40.13
2018-02-23T00:52:37.300Z,39.90
2018-02-23T00:55:05.698Z,42.77
2018-02-23T00:57:34.042Z,41.53
2018-02-23T01:00:03.154Z,41.70
2018-02-23T01:02:32.266Z,41.43
2018-02-23T01:05:01.368Z,40.40
2018-02-23T01:07:29.768Z,41.37
2018-02-23T01:09:58.138Z,41.70
2018-02-23T01:12:26.476Z,41.47
2018-02-23T01:14:54.862Z,41.43
2018-02-23T01:17:24.023Z,41.17
2018-02-23T01:19:52.403Z,45.47
2018-02-23T01:22:20.817Z,43.33
2018-02-23T01:24:49.145Z,43.90
2018-02-23T01:27:17.484Z,43.25
2018-02-23T01:29:45.825Z,43.57
2018-02-23T01:32:14.183Z,43.13
2018-02-23T01:34:42.528Z,41.50
2018-02-23T01:37:11.651Z,46.47
2018-02-23T01:39:40.012Z,44.80
2018-02-23T01:42:08.380Z,45.97
2018-02-23T01:44:36.714Z,44.97
2018-02-23T01:47:05.089Z,42.17
2018-02-23T01:49:33.483Z,43.60
2018-02-23T01:52:01.844Z,46.00
2018-02-23T01:54:30.266Z,43.50
2018-02-23T01:56:58.655Z,45.90
2018-02-23T01:59:27.054Z,45.97
2018-02-23T02:01:55.408Z,43.33
2018-02-23T02:04:23.737Z,46.83
2018-02-23T02:06:52.878Z,44.17
2018-02-23T02:09:21.272Z,46.43
2018-02-23T02:11:49.610Z,46.67
2018-02-23T02:14:17.960Z,47.43
2018-02-23T02:16:46.320Z,44.17
2018-02-23T02:19:14.679Z,44.67
2018-02-23T02:21:43.022Z,45.37
2018-02-23T02:24:12.156Z,47.37
2018-02-23T02:26:40.462Z,45.60
2018-02-23T02:29:08.807Z,43.90
2018-02-23T02:31:37.115Z,47.27
2018-02-23T02:34:05.604Z,46.90
2018-02-23T02:36:34.718Z,47.80
2018-02-23T02:39:03.068Z,48.70
2018-02-23T02:41:31.433Z,49.37
2018-02-23T02:43:59.790Z,49.40
2018-02-23T02:46:28.940Z,47.90
2018-02-23T02:48:57.328Z,47.90
2018-02-23T02:51:25.647Z,47.03
2018-02-23T02:53:54.762Z,47.90
2018-02-23T02:56:23.135Z,50.50
2018-02-23T02:58:52.260Z,51.10
2018-02-23T03:01:20.627Z,50.77
2018-02-23T03:03:49.030Z,48.27
2018-02-23T03:06:17.454Z,51.55
2018-02-23T03:08:45.849Z,49.73
2018-02-23T03:11:15.056Z,53.17
2018-02-23T03:13:43.576Z,49.37
2018-02-23T03:16:11.959Z,50.60
2018-02-23T03:18:40.286Z,51.17
2018-02-23T03:21:08.653Z,49.90
2018-02-23T03:23:37.791Z,50.87
2018-02-23T03:26:06.187Z,53.40
2018-02-23T03:28:34.536Z,51.40
2018-02-23T03:31:02.875Z,51.13
2018-02-23T03:33:31.230Z,51.43
2018-02-23T03:35:59.649Z,48.67
2018-02-23T03:38:27.996Z,50.30
2018-02-23T03:40:56.340Z,50.30
2018-02-23T03:43:24.979Z,51.27
2018-02-23T03:45:53.456Z,50.90
2018-02-23T03:48:21.830Z,50.47
2018-02-23T03:50:50.270Z,54.80
2018-02-23T03:53:18.663Z,50.57
2018-02-23T03:55:47.044Z,52.80
2018-02-23T03:58:15.389Z,53.10
2018-02-23T04:00:43.992Z,52.97
2018-02-23T04:03:12.428Z,52.10
2018-02-23T04:05:40.808Z,50.63
2018-02-23T04:08:09.228Z,51.07
2018-02-23T04:10:37.588Z,50.77
2018-02-23T04:13:06.030Z,50.63
2018-02-23T04:15:34.400Z,52.23
2018-02-23T04:18:02.748Z,51.07
2018-02-23T04:20:31.076Z,52.75
2018-02-23T04:23:00.248Z,49.20
2018-02-23T04:25:28.622Z,50.30
2018-02-23T04:27:57.014Z,52.67
2018-02-23T04:30:25.464Z,51.70
2018-02-23T04:32:54.623Z,47.83
2018-02-23T04:35:23.738Z,49.60
2018-02-23T04:37:52.060Z,49.10
2018-02-23T04:40:20.384Z,49.90
2018-02-23T04:42:49.464Z,49.07
2018-02-23T04:45:17.794Z,51.00
2018-02-23T04:47:46.102Z,45.70
2018-02-23T04:50:14.417Z,47.80
2018-02-23T04:52:43.496Z,49.80
2018-02-23T04:55:11.810Z,48.90
2018-02-23T04:57:40.889Z,48.10
2018-02-23T05:00:09.216Z,50.92
2018-02-23T05:02:37.537Z,46.90
2018-02-23T05:05:05.858Z,39.92
2018-02-23T05:07:34.176Z,45.00
2018-02-23T05:10:02.497Z,46.37
2018-02-23T05:12:31.592Z,47.77
2018-02-23T05:14:59.923Z,48.63
2018-02-23T05:17:28.247Z,48.50
2018-02-23T05:19:56.560Z,43.40
2018-02-23T05:22:24.882Z,42.00
2018-02-23T05:24:53.190Z,44.07
2018-02-23T05:27:21.544Z,45.07
2018-02-23T05:29:49.904Z,44.33
2018-02-23T05:32:18.228Z,42.50
2018-02-23T05:34:46.619Z,42.03
2018-02-23T05:37:14.980Z,44.20
2018-02-23T05:39:43.303Z,38.60
2018-02-23T05:42:11.733Z,42.73
2018-02-23T05:44:40.060Z,41.30
2018-02-23T05:47:09.141Z,41.17
2018-02-23T05:49:37.468Z,38.40
2018-02-23T05:52:05.778Z,41.53
2018-02-23T05:54:34.134Z,36.37
2018-02-23T05:57:02.454Z,34.60
2018-02-23T05:59:30.784Z,39.47
2018-02-23T06:01:59.100Z,42.57
2018-02-23T06:04:27.448Z,43.03
2018-02-23T06:06:55.775Z,39.50
2018-02-23T06:09:24.114Z,42.53
2018-02-23T06:11:52.430Z,42.10
2018-02-23T06:14:20.774Z,43.30
2018-02-23T06:16:49.111Z,41.00
2018-02-23T06:19:24.344Z,39.33
2018-02-23T06:21:52.673Z,38.50
2018-02-23T06:24:21.003Z,37.00
2018-02-23T06:26:49.319Z,34.57
2018-02-23T06:29:17.640Z,37.03
2018-02-23T06:31:46.044Z,34.70
2018-02-23T06:34:14.383Z,34.95
2018-02-23T06:36:42.698Z,33.38
2018-02-23T06:39:11.020Z,35.80
2018-02-23T06:41:39.399Z,35.45
2018-02-23T06:44:07.729Z,35.20
2018-02-23T06:46:36.044Z,32.63
2018-02-23T06:49:05.157Z,31.62
2018-02-23T06:51:34.337Z,31.47
2018-02-23T06:54:03.572Z,31.90
2018-02-23T06:56:31.903Z,31.17
2018-02-23T06:59:00.245Z,29.00
2018-02-23T07:01:28.597Z,29.27
2018-02-23T07:03:57.722Z,28.30
2018-02-23T07:06:26.056Z,28.60
2018-02-23T07:08:54.466Z,28.10
2018-02-23T07:11:23.543Z,29.60
2018-02-23T07:13:52.628Z,28.50
2018-02-23T07:16:21.662Z,30.47
2018-02-23T07:18:49.994Z,29.60
2018-02-23T07:21:18.341Z,30.10
2018-02-23T07:23:46.656Z,30.13
2018-02-23T07:26:14.987Z,29.60
2018-02-23T07:28:43.300Z,30.07
2018-02-23T07:31:11.607Z,32.93
2018-02-23T07:33:39.962Z,36.40
2018-02-23T07:36:08.287Z,32.43
2018-02-23T07:38:37.402Z,35.30
2018-02-23T07:41:06.493Z,40.00
2018-02-23T07:43:35.637Z,35.93
2018-02-23T07:46:05.739Z,33.20
2018-02-23T07:48:34.053Z,33.50
2018-02-23T07:51:02.374Z,35.03
2018-02-23T07:53:31.469Z,32.30
2018-02-23T07:56:00.617Z,32.30
2018-02-23T07:58:28.972Z,32.97
2018-02-23T08:00:57.285Z,31.90
2018-02-23T08:03:25.624Z,33.17
2018-02-23T08:05:54.074Z,31.67
2018-02-23T08:08:22.419Z,29.13
2018-02-23T08:10:50.891Z,31.53
2018-02-23T08:13:19.189Z,31.10
2018-02-23T08:15:47.499Z,32.00
2018-02-23T08:18:15.833Z,30.67
2018-02-23T08:20:44.128Z,31.30
2018-02-23T08:23:12.603Z,32.13
2018-02-23T08:25:40.999Z,32.27
2018-02-23T08:28:09.301Z,30.40
2018-02-23T08:30:37.667Z,29.13
2018-02-23T08:33:05.998Z,31.20
2018-02-23T08:35:35.125Z,30.10
2018-02-23T08:38:03.470Z,29.93
2018-02-23T08:40:32.607Z,29.90
2018-02-23T08:43:01.086Z,33.47
2018-02-23T08:45:29.486Z,32.97
2018-02-23T08:47:57.849Z,31.80
2018-02-23T08:50:26.205Z,30.57
2018-02-23T08:52:55.399Z,30.00
2018-02-23T08:55:23.731Z,30.67
2018-02-23T08:57:52.184Z,31.33
2018-02-23T09:00:21.257Z,32.83
2018-02-23T09:02:50.391Z,32.40
2018-02-23T09:05:19.077Z,30.80
2018-02-23T09:07:47.413Z,31.10
2018-02-23T09:10:16.677Z,33.37
2018-02-23T09:12:45.061Z,30.27
2018-02-23T09:15:13.390Z,28.90
2018-02-23T09:17:42.461Z,33.63
2018-02-23T09:20:10.848Z,31.07
2018-02-23T09:22:39.235Z,30.10
2018-02-23T09:25:07.561Z,28.40
2018-02-23T09:27:35.997Z,28.07
2018-02-23T09:30:04.382Z,25.43
2018-02-23T09:32:39.904Z,26.87
2018-02-23T09:35:08.250Z,23.27
2018-02-23T09:37:36.575Z,25.20
2018-02-23T09:40:04.897Z,25.43
2018-02-23T09:42:33.984Z,25.10
2018-02-23T09:45:03.053Z,24.20
2018-02-23T09:47:31.377Z,21.90
2018-02-23T09:50:00.463Z,23.30
2018-02-23T09:52:29.561Z,23.57
2018-02-23T09:54:58.689Z,23.00
2018-02-23T09:57:27.012Z,21.90
2018-02-23T09:59:55.339Z,22.43
2018-02-23T10:02:23.733Z,22.90
2018-02-23T10:04:52.112Z,23.90
2018-02-23T10:07:20.467Z,22.80
2018-02-23T10:09:49.534Z,21.23
2018-02-23T10:12:17.927Z,21.67
2018-02-23T10:14:46.235Z,21.43
2018-02-23T10:17:15.343Z,22.20
2018-02-23T10:19:43.706Z,22.70
2018-02-23T10:22:12.798Z,24.53
2018-02-23T10:24:41.143Z,29.90
2018-02-23T10:27:09.484Z,21.30
2018-02-23T10:29:37.819Z,21.70
2018-02-23T10:32:06.160Z,23.40
2018-02-23T10:34:34.549Z,24.00
2018-02-23T10:37:02.854Z,25.07
2018-02-23T10:39:31.515Z,24.57
2018-02-23T10:41:59.817Z,30.60
2018-02-23T10:44:28.196Z,23.60
2018-02-23T10:46:56.523Z,22.17
2018-02-23T10:49:25.613Z,21.47
2018-02-23T10:51:53.953Z,25.23
2018-02-23T10:54:22.271Z,22.00
2018-02-23T10:56:50.634Z,22.57
2018-02-23T10:59:18.965Z,22.97
2018-02-23T11:01:47.275Z,23.07
2018-02-23T11:04:16.477Z,19.93
2018-02-23T11:06:44.767Z,19.50
2018-02-23T11:09:13.091Z,18.50
2018-02-23T11:11:42.154Z,17.10
2018-02-23T11:14:10.599Z,18.00
2018-02-23T11:16:38.944Z,15.73
2018-02-23T11:19:08.051Z,15.33
2018-02-23T11:21:37.387Z,16.30
2018-02-23T11:24:05.688Z,14.17
2018-02-23T11:26:33.994Z,14.67
2018-02-23T11:29:03.009Z,15.30
2018-02-23T11:31:32.104Z,14.20
2018-02-23T11:34:01.237Z,13.50
2018-02-23T11:36:29.552Z,14.40
2018-02-23T11:38:57.869Z,13.00
2018-02-23T11:41:26.951Z,12.10
2018-02-23T11:43:55.379Z,13.00
2018-02-23T11:46:23.965Z,11.73
2018-02-23T11:48:52.288Z,11.30
2018-02-23T11:51:20.603Z,12.53
2018-02-23T11:53:49.820Z,13.00
2018-02-23T11:56:18.165Z,12.97
2018-02-23T11:58:46.638Z,13.10
2018-02-23T12:01:15.033Z,12.80
2018-02-23T12:03:43.340Z,12.80
2018-02-23T12:06:11.657Z,13.73
2018-02-23T12:08:40.114Z,13.77
2018-02-23T12:11:08.480Z,12.67
2018-02-23T12:13:37.841Z,14.47
2018-02-23T12:16:06.391Z,14.23
2018-02-23T12:18:34.689Z,13.03
2018-02-23T12:21:03.039Z,13.27
2018-02-23T12:23:32.254Z,14.03
2018-02-23T12:26:00.593Z,13.60
2018-02-23T12:28:28.972Z,14.60
2018-02-23T12:30:59.611Z,13.57
2018-02-23T12:33:28.953Z,13.57
2018-02-23T12:35:57.713Z,15.37
2018-02-23T12:38:26.812Z,14.03
2018-02-23T12:40:55.903Z,14.30
2018-02-23T12:43:24.223Z,13.57
2018-02-23T12:45:52.529Z,13.47
2018-02-23T12:48:20.870Z,14.47
2018-02-23T12:50:49.220Z,14.80
2018-02-23T12:53:17.532Z,14.73
2018-02-23T12:55:45.849Z,16.00
2018-02-23T12:58:14.916Z,15.23
2018-02-23T13:00:43.556Z,16.43
2018-02-23T13:03:11.874Z,16.77
2018-02-23T13:05:40.229Z,17.03
2018-02-23T13:08:08.594Z,15.57
2018-02-23T13:10:36.930Z,17.33
2018-02-23T13:13:05.339Z,17.47
2018-02-23T13:15:33.680Z,15.83
2018-02-23T13:18:02.018Z,16.60
2018-02-23T13:20:30.335Z,15.67
2018-02-23T13:22:59.410Z,15.83
2018-02-23T13:25:27.738Z,15.53
2018-02-23T13:28:01.635Z,15.70
2018-02-23T13:30:30.720Z,17.40
2018-02-23T13:32:59.815Z,15.40
2018-02-23T13:35:28.940Z,14.90
2018-02-23T13:37:57.258Z,15.47
2018-02-23T13:40:25.966Z,14.47
2018-02-23T13:42:54.302Z,15.20
2018-02-23T13:45:23.502Z,14.40
2018-02-23T13:47:51.826Z,15.27
2018-02-23T13:50:20.150Z,15.27
2018-02-23T13:52:48.494Z,14.10
2018-02-23T13:55:16.827Z,14.43
2018-02-23T13:57:45.266Z,12.90
2018-02-23T14:00:13.636Z,14.50
2018-02-23T14:02:42.432Z,14.07
2018-02-23T14:05:10.755Z,14.90
2018-02-23T14:07:39.154Z,15.20
2018-02-23T14:10:07.492Z,15.10
2018-02-23T14:12:36.604Z,15.50
2018-02-23T14:15:04.943Z,16.90
2018-02-23T14:17:33.357Z,15.20
2018-02-23T14:20:02.481Z,14.83
2018-02-23T14:22:30.860Z,14.57
2018-02-23T14:24:59.239Z,14.07
2018-02-23T14:27:27.573Z,14.80
2018-02-23T14:29:55.891Z,16.63
2018-02-23T14:32:24.213Z,14.27
2018-02-23T14:34:52.517Z,15.37
2018-02-23T14:37:21.802Z,16.37
2018-02-23T14:39:50.202Z,15.40
2018-02-23T14:42:19.173Z,17.53
2018-02-23T14:44:47.484Z,16.47
2018-02-23T14:47:17.097Z,15.10
2018-02-23T14:50:03.007Z,15.90
2018-02-23T14:52:32.191Z,14.60
2018-02-23T14:55:01.284Z,15.00
2018-02-23T14:57:30.363Z,16.03
2018-02-23T14:59:58.717Z,15.13
2018-02-23T15:02:27.051Z,16.17
2018-02-23T15:04:56.124Z,15.30
2018-02-23T15:07:24.502Z,15.70
2018-02-23T15:09:52.850Z,16.10
2018-02-23T15:12:21.167Z,15.80
2018-02-23T15:14:49.487Z,16.30
2018-02-23T15:17:17.814Z,18.03
2018-02-23T15:19:46.161Z,16.80
2018-02-23T15:22:14.633Z,14.83
2018-02-23T15:24:42.945Z,16.87
2018-02-23T15:27:11.293Z,14.60
2018-02-23T15:29:39.618Z,15.50
2018-02-23T15:32:38.595Z,15.23
2018-02-23T15:35:08.420Z,15.67
2018-02-23T15:37:36.730Z,15.33
2018-02-23T15:40:05.877Z,15.30
2018-02-23T15:42:34.192Z,15.07
2018-02-23T15:45:02.512Z,16.10
2018-02-23T15:47:34.169Z,15.70
2018-02-23T15:50:09.222Z,13.60
2018-02-23T15:52:37.829Z,15.03
2018-02-23T15:55:06.180Z,14.57
2018-02-23T15:57:34.544Z,16.20
2018-02-23T16:00:02.912Z,15.20
2018-02-23T16:02:32.045Z,14.73
2018-02-23T16:05:00.422Z,14.70
2018-02-23T16:07:28.766Z,14.00
2018-02-23T16:09:57.886Z,13.10
2018-02-23T16:12:26.977Z,14.07
2018-02-23T16:14:56.088Z,12.80
2018-02-23T16:17:24.401Z,13.33
2018-02-23T16:19:52.767Z,13.83
2018-02-23T16:22:21.087Z,13.47
2018-02-23T16:24:49.414Z,14.30
2018-02-23T16:27:17.744Z,12.33
2018-02-23T16:29:46.097Z,12.60
2018-02-23T16:32:14.426Z,12.37
2018-02-23T16:34:42.752Z,13.40
2018-02-23T16:37:11.124Z,13.83
2018-02-23T16:39:40.526Z,111.37
2018-02-23T16:42:09.083Z,10.57
2018-02-23T16:44:38.204Z,10.00
2018-02-23T16:47:06.601Z,9.73
2018-02-23T16:49:34.941Z,10.17
2018-02-23T16:52:04.059Z,10.37
2018-02-23T16:54:32.399Z,9.13
2018-02-23T16:57:01.489Z,14.53
2018-02-23T16:59:29.844Z,8.43
2018-02-23T17:02:00.452Z,13.37
2018-02-23T17:04:28.842Z,16.23
2018-02-23T17:06:57.996Z,9.20
2018-02-23T17:09:27.873Z,8.70
2018-02-23T17:11:56.224Z,10.20
2018-02-23T17:14:25.571Z,11.60
2018-02-23T17:16:53.888Z,14.27
2018-02-23T17:19:22.366Z,10.80
2018-02-23T17:21:50.758Z,12.13
2018-02-23T17:24:19.865Z,12.13
2018-02-23T17:26:49.816Z,19.43
2018-02-23T17:29:18.344Z,26.23
2018-02-23T17:31:48.225Z,14.50
2018-02-23T17:34:16.799Z,29.47
2018-02-23T17:36:45.946Z,13.10
2018-02-23T17:39:14.381Z,11.90
2018-02-23T17:41:42.698Z,9.20
2018-02-23T17:44:11.123Z,8.40
2018-02-23T17:46:39.453Z,8.30
2018-02-23T17:49:08.227Z,9.00
2018-02-23T17:51:36.716Z,7.93
2018-02-23T17:54:05.701Z,7.87
2018-02-23T17:56:34.106Z,8.60
2018-02-23T17:59:02.426Z,8.07
2018-02-23T18:01:30.767Z,8.20
2018-02-23T18:03:59.196Z,8.27
2018-02-23T18:06:27.565Z,7.60
2018-02-23T18:08:55.940Z,8.13
2018-02-23T18:11:24.400Z,7.93
2018-02-23T18:13:53.647Z,7.70
2018-02-23T18:16:22.038Z,7.40
2018-02-23T18:18:58.011Z,7.13
2018-02-23T18:21:26.594Z,7.30
2018-02-23T18:23:54.924Z,7.30
2018-02-23T18:26:23.294Z,7.40
2018-02-23T18:28:51.613Z,6.13
2018-02-23T18:31:20.756Z,7.40
2018-02-23T18:33:49.140Z,7.47
2018-02-23T18:36:17.461Z,7.40
2018-02-23T18:38:45.820Z,7.97
2018-02-23T18:41:14.174Z,5.27
2018-02-23T18:43:42.532Z,7.47
2018-02-23T18:46:10.920Z,6.30
2018-02-23T18:48:39.342Z,7.40
2018-02-23T18:51:09.008Z,7.50
2018-02-23T18:53:38.862Z,8.30
2018-02-23T18:56:07.182Z,7.43
2018-02-23T18:58:35.516Z,7.90
2018-02-23T19:01:03.852Z,7.37
2018-02-23T19:03:32.931Z,6.70
2018-02-23T19:06:01.740Z,7.23
2018-02-23T19:08:30.840Z,6.97
2018-02-23T19:10:59.174Z,7.20
2018-02-23T19:13:27.511Z,6.93
2018-02-23T19:15:56.624Z,7.03
2018-02-23T19:18:24.926Z,7.07
2018-02-23T19:20:53.252Z,9.02
2018-02-23T19:23:22.388Z,7.27
2018-02-23T19:25:50.701Z,7.90
2018-02-23T19:28:19.037Z,8.80
2018-02-23T19:30:48.135Z,8.87
2018-02-23T19:33:18.014Z,10.10
2018-02-23T19:35:46.330Z,9.00
2018-02-23T19:38:14.698Z,9.83
2018-02-23T19:40:43.796Z,8.43
2018-02-23T19:43:12.207Z,7.13
2018-02-23T19:45:40.558Z,6.77
2018-02-23T19:48:09.710Z,8.70
2018-02-23T19:50:38.136Z,9.20
2018-02-23T19:53:07.214Z,8.00
2018-02-23T19:55:35.557Z,6.53
2018-02-23T19:58:03.877Z,8.63
2018-02-23T20:00:32.892Z,8.43
2018-02-23T20:03:02.083Z,9.00
2018-02-23T20:05:30.503Z,8.93
2018-02-23T20:07:58.868Z,8.53
2018-02-23T20:10:27.950Z,9.73
2018-02-23T20:12:57.137Z,9.90
2018-02-23T20:15:26.317Z,9.80
2018-02-23T20:17:55.433Z,10.63
2018-02-23T20:20:23.789Z,9.30
2018-02-23T20:22:52.282Z,9.13
2018-02-23T20:25:20.626Z,10.53
2018-02-23T20:27:49.025Z,10.07
2018-02-23T20:30:17.491Z,10.93
2018-02-23T20:32:45.888Z,10.57
2018-02-23T20:35:14.397Z,10.40
2018-02-23T20:37:43.295Z,11.63
2018-02-23T20:40:11.730Z,11.97
2018-02-23T20:42:40.086Z,11.23
2018-02-23T20:45:08.448Z,12.20
2018-02-23T20:47:37.830Z,11.23
2018-02-23T20:50:06.236Z,11.70
2018-02-23T20:52:34.581Z,12.00
2018-02-23T20:55:03.346Z,9.13
2018-02-23T20:57:31.711Z,13.30
2018-02-23T21:00:00.926Z,12.20
2018-02-23T21:02:29.500Z,11.83
2018-02-23T21:04:57.960Z,12.77
2018-02-23T21:07:26.391Z,13.27
2018-02-23T21:09:54.739Z,12.37
2018-02-23T21:12:23.856Z,11.97
2018-02-23T21:14:52.998Z,12.83
2018-02-23T21:17:21.329Z,13.13
2018-02-23T21:19:50.425Z,13.60
2018-02-23T21:22:20.364Z,13.13
2018-02-23T21:24:48.749Z,13.40
2018-02-23T21:27:17.154Z,13.40
2018-02-23T21:29:45.478Z,13.68
2018-02-23T21:32:13.820Z,13.03
2018-02-23T21:34:42.155Z,12.90
2018-02-23T21:37:11.276Z,14.23
2018-02-23T21:39:39.626Z,15.23
2018-02-23T21:42:07.996Z,14.80
2018-02-23T21:44:47.730Z,15.13
2018-02-23T21:47:16.096Z,14.90
2018-02-23T21:49:44.431Z,15.93
2018-02-23T21:52:12.842Z,16.17
2018-02-23T21:54:41.218Z,14.85
2018-02-23T21:57:10.417Z,16.37
2018-02-23T21:59:38.794Z,14.33
2018-02-23T22:02:07.142Z,15.80
2018-02-23T22:04:36.256Z,14.98
2018-02-23T22:07:04.662Z,14.87
2018-02-23T22:09:33.006Z,15.30
2018-02-23T22:12:02.119Z,15.35
2018-02-23T22:14:30.505Z,19.50
2018-02-23T22:16:58.870Z,14.43
2018-02-23T22:19:27.939Z,15.10
2018-02-23T22:21:57.133Z,12.85
2018-02-23T22:24:25.524Z,12.85
2018-02-23T22:26:53.904Z,12.53
2018-02-23T22:29:22.232Z,13.43
2018-02-23T22:31:50.558Z,15.00
2018-02-23T22:34:18.866Z,14.73
2018-02-23T22:36:47.998Z,13.40
2018-02-23T22:39:16.993Z,14.80
2018-02-23T22:41:46.029Z,16.17
2018-02-23T22:44:15.809Z,14.90
2018-02-23T22:46:44.196Z,15.87
2018-02-23T22:49:12.697Z,15.27
2018-02-23T22:51:41.046Z,14.80
2018-02-23T22:54:09.403Z,15.40
2018-02-23T22:56:37.808Z,14.00
2018-02-23T22:59:06.195Z,13.98
2018-02-23T23:01:34.549Z,15.52
2018-02-23T23:04:04.261Z,14.73
2018-02-23T23:06:33.367Z,13.50
2018-02-23T23:09:02.544Z,16.43
2018-02-23T23:11:31.891Z,14.70
2018-02-23T23:14:00.282Z,13.77
2018-02-23T23:16:28.740Z,14.23
2018-02-23T23:18:57.833Z,15.35
2018-02-23T23:21:26.977Z,17.35
2018-02-23T23:23:56.033Z,14.95
2018-02-23T23:26:24.399Z,12.50
2018-02-23T23:28:53.492Z,14.93
2018-02-23T23:31:22.618Z,12.60
2018-02-23T23:33:50.982Z,13.95
2018-02-23T23:36:20.168Z,14.05
2018-02-23T23:38:48.541Z,13.67
2018-02-23T23:41:16.932Z,13.00
2018-02-23T23:43:46.113Z,14.27
2018-02-23T23:46:14.485Z,15.60
2018-02-23T23:48:43.453Z,15.55
2018-02-23T23:51:11.868Z,14.50
2018-02-23T23:53:40.238Z,14.65
2018-02-23T23:56:08.660Z,15.03
2018-02-23T23:58:37.044Z,13.60
